Portada
METAR-TAF:

METAR-TAF

Aeroports :

Lydd, Anglaterra

latitud: 50-57N, longitud: 000-56E, altitud: 3 m

Observació

L'informe es va fer fa 29 minuts, a les 23:50 UTC
Vent 6 kt del Oest
Temperatura 1°C
Humitat 93%
Pressió 1035 hPa
Visibilitat 10 km o més

METAR: EGMD 182350Z AUTO 28006KT 9999 NCD 01/00 Q1035

Hora: 00:19 (00:19 UTC)

Pronòstic

L'informe es va fer fa 1 hora i 15 minuts, a les 23:04 UTC
Pronòstic vàlid del 19 a les 00 UTC al 19 a les 09 UTC
Vent 8 kt del Nord/Nord-Oest
Visibilitat 10 km o més
Escasses núvols a una alçada de 3000 ft
Probabilitat 30% :
Temporalment
l' 19 a les 03 UTC al 19 a les 09 UTC
Visibilitat: 8000 m
Cel ennuvolat a una alçada de 1000 ft

TAF: EGMD 182304Z 1900/1909 33008KT 9999 FEW030 PROB30 TEMPO 1903/1909 8000 BKN010

Observacions i pronòstics meteorològics de més de 4000 aeroports (METAR i TAF).

Les estacions disponibles són els punts grocs i vermells al mapa.

Posi el ratolí al punt desitjat per veure el nom de l'estació.

Feu clic per veure les observacions i els pronòstics meteorològics.

Per canviar el mapa: feu clic els botons verds amb una creu de color negre per apropar; al botó verd amb un guió per allunyar la imatge; o en les fletxes verdes per a mapes adjacents.


METAR-TAF: